createdAt,value
2023-03-06T00:01:19.550Z,99.99
2023-03-06T00:03:56.919Z,99.99
2023-03-06T00:06:30.544Z,99.99
2023-03-06T00:09:02.251Z,99.99
2023-03-06T00:11:37.215Z,99.99
2023-03-06T00:14:10.453Z,99.99
2023-03-06T00:16:41.188Z,99.99
2023-03-06T00:19:11.847Z,99.99
2023-03-06T00:21:46.958Z,99.99
2023-03-06T00:24:17.494Z,99.99
2023-03-06T00:26:54.168Z,99.99
2023-03-06T00:29:25.869Z,99.99
2023-03-06T00:31:59.176Z,99.99
2023-03-06T00:34:30.565Z,99.99
2023-03-06T00:37:01.590Z,99.99
2023-03-06T00:39:31.889Z,99.99
2023-03-06T00:42:03.873Z,99.99
2023-03-06T00:44:40.418Z,99.99
2023-03-06T00:47:11.265Z,99.99
2023-03-06T00:49:44.843Z,99.99
2023-03-06T00:52:16.018Z,99.99
2023-03-06T00:54:46.246Z,99.99
2023-03-06T00:57:19.750Z,99.99
2023-03-06T00:59:51.205Z,99.99
2023-03-06T01:02:25.219Z,99.99
2023-03-06T01:04:57.028Z,99.99
2023-03-06T01:07:28.581Z,99.99
2023-03-06T01:10:01.267Z,99.99
2023-03-06T01:12:31.540Z,99.99
2023-03-06T01:15:01.465Z,99.99
2023-03-06T01:17:31.372Z,99.99
2023-03-06T01:20:01.248Z,99.99
2023-03-06T01:22:31.401Z,99.99
2023-03-06T01:25:02.049Z,99.99
2023-03-06T01:27:32.056Z,99.99
2023-03-06T01:30:01.682Z,99.99
2023-03-06T01:32:32.706Z,99.99
2023-03-06T01:35:04.889Z,99.99
2023-03-06T01:37:36.424Z,99.99
2023-03-06T01:40:09.733Z,99.99
2023-03-06T01:42:39.616Z,99.99
2023-03-06T01:45:15.623Z,99.99
2023-03-06T01:47:46.366Z,99.99
2023-03-06T01:50:16.943Z,99.99
2023-03-06T01:52:48.854Z,99.99
2023-03-06T01:55:26.267Z,99.99
2023-03-06T01:58:00.056Z,99.99
2023-03-06T02:00:31.595Z,99.99
2023-03-06T02:03:15.229Z,99.99
2023-03-06T02:05:46.145Z,99.99
2023-03-06T02:08:19.387Z,99.99
2023-03-06T02:11:00.232Z,99.99
2023-03-06T02:13:31.343Z,99.99
2023-03-06T02:16:01.582Z,99.99
2023-03-06T02:18:31.724Z,99.99
2023-03-06T02:21:05.539Z,99.99
2023-03-06T02:24:03.132Z,99.99
2023-03-06T02:26:35.992Z,99.99
2023-03-06T02:29:06.295Z,99.99
2023-03-06T02:31:36.794Z,99.99
2023-03-06T02:34:18.600Z,99.99
2023-03-06T02:36:56.207Z,99.99
2023-03-06T02:39:29.630Z,99.99
2023-03-06T02:41:59.622Z,99.99
2023-03-06T02:44:34.158Z,99.99
2023-03-06T02:47:04.183Z,99.99
2023-03-06T02:49:33.811Z,99.99
2023-03-06T02:52:03.669Z,99.99
2023-03-06T02:54:33.849Z,99.99
2023-03-06T02:57:03.757Z,99.99
2023-03-06T02:59:34.625Z,99.99
2023-03-06T03:02:06.918Z,99.99
2023-03-06T03:04:36.964Z,99.99
2023-03-06T03:07:08.014Z,99.99
2023-03-06T03:09:38.433Z,99.99
2023-03-06T03:12:09.310Z,99.99
2023-03-06T03:14:39.327Z,99.99
2023-03-06T03:17:11.016Z,99.99
2023-03-06T03:19:40.933Z,99.99
2023-03-06T03:22:10.907Z,99.99
2023-03-06T03:24:41.165Z,99.99
2023-03-06T03:27:11.426Z,99.99
2023-03-06T03:29:42.638Z,99.99
2023-03-06T03:32:12.880Z,99.99
2023-03-06T03:34:44.646Z,99.99
2023-03-06T03:37:15.033Z,99.99
2023-03-06T03:39:45.644Z,99.99
2023-03-06T03:42:15.762Z,99.99
2023-03-06T03:44:45.737Z,99.99
2023-03-06T03:47:15.722Z,99.99
2023-03-06T03:49:45.486Z,99.99
2023-03-06T03:52:15.229Z,99.99
2023-03-06T03:54:45.045Z,99.99
2023-03-06T03:57:15.105Z,99.99
2023-03-06T03:59:50.261Z,99.99
2023-03-06T04:02:31.822Z,99.99
2023-03-06T04:05:14.148Z,99.99
2023-03-06T04:07:45.060Z,99.99
2023-03-06T04:10:15.174Z,99.99
2023-03-06T04:12:45.749Z,99.99
2023-03-06T04:15:15.779Z,99.99
2023-03-06T04:17:48.346Z,99.99
2023-03-06T04:20:22.659Z,99.99
2023-03-06T04:22:52.747Z,99.99
2023-03-06T04:25:22.931Z,99.99
2023-03-06T04:27:52.772Z,99.99
2023-03-06T04:30:22.925Z,99.99
2023-03-06T04:32:53.170Z,99.99
2023-03-06T04:35:23.170Z,99.99
2023-03-06T04:38:00.062Z,99.99
2023-03-06T04:40:35.370Z,99.99
2023-03-06T04:43:06.555Z,99.99
2023-03-06T04:45:36.846Z,99.99
2023-03-06T04:48:06.931Z,99.99
2023-03-06T04:50:39.110Z,99.99
2023-03-06T04:53:09.749Z,99.99
2023-03-06T04:55:39.700Z,99.99
2023-03-06T04:58:09.447Z,99.99
2023-03-06T05:00:39.092Z,99.99
2023-03-06T05:03:10.293Z,99.99
2023-03-06T05:05:40.122Z,99.99
2023-03-06T05:08:14.110Z,99.99
2023-03-06T05:10:45.031Z,99.99
2023-03-06T05:13:14.957Z,99.99
2023-03-06T05:15:44.566Z,99.99
2023-03-06T05:18:14.499Z,99.99
2023-03-06T05:20:44.301Z,99.99
2023-03-06T05:23:14.285Z,99.99
2023-03-06T05:25:44.316Z,99.99
2023-03-06T05:28:13.900Z,99.99
2023-03-06T05:30:43.832Z,99.99
2023-03-06T05:33:15.388Z,99.99
2023-03-06T05:35:49.337Z,99.99
2023-03-06T05:38:20.349Z,99.99
2023-03-06T05:40:50.090Z,99.99
2023-03-06T05:43:19.852Z,99.99
2023-03-06T05:45:51.569Z,99.99
2023-03-06T05:48:21.447Z,99.99
2023-03-06T05:50:57.580Z,99.99
2023-03-06T05:53:28.210Z,99.99
2023-03-06T05:56:00.098Z,99.99
2023-03-06T05:58:32.512Z,99.99
2023-03-06T06:01:09.117Z,99.99
2023-03-06T06:03:39.699Z,99.99
2023-03-06T06:06:11.753Z,99.99
2023-03-06T06:08:41.888Z,99.99
2023-03-06T06:11:13.626Z,99.99
2023-03-06T06:13:43.560Z,99.99
2023-03-06T06:16:20.263Z,99.99
2023-03-06T06:18:50.208Z,99.99
2023-03-06T06:21:20.125Z,99.99
2023-03-06T06:23:49.730Z,99.99
2023-03-06T06:26:19.650Z,99.99
2023-03-06T06:28:49.457Z,99.99
2023-03-06T06:31:19.086Z,99.99
2023-03-06T06:33:49.078Z,99.99
2023-03-06T06:36:20.963Z,99.99
2023-03-06T06:38:51.665Z,99.99
2023-03-06T06:41:50.746Z,99.99
2023-03-06T06:44:15.660Z,99.99
2023-03-06T06:49:36.748Z,99.99
2023-03-06T06:52:07.496Z,99.99
2023-03-06T06:54:37.402Z,99.99
2023-03-06T06:57:06.973Z,99.99
2023-03-06T06:59:36.722Z,99.99
2023-03-06T07:02:08.444Z,99.99
2023-03-06T07:04:38.793Z,99.99
2023-03-06T07:07:09.690Z,99.99
2023-03-06T07:09:43.217Z,99.99
2023-03-06T07:12:13.154Z,99.99
2023-03-06T07:14:43.432Z,99.99
2023-03-06T07:17:13.244Z,99.99
2023-03-06T07:19:42.804Z,99.99
2023-03-06T07:22:12.807Z,99.99
2023-03-06T07:24:42.578Z,99.99
2023-03-06T07:27:12.174Z,99.99
2023-03-06T07:29:45.436Z,99.99
2023-03-06T07:32:15.465Z,99.99
2023-03-06T07:34:46.433Z,99.99
2023-03-06T07:37:16.534Z,99.99
2023-03-06T07:39:46.091Z,99.99
2023-03-06T07:42:16.978Z,99.99
2023-03-06T07:44:57.484Z,99.99
2023-03-06T07:47:27.239Z,99.99
2023-03-06T07:49:58.232Z,99.99
2023-03-06T07:52:28.179Z,99.99
2023-03-06T07:54:57.908Z,99.99
2023-03-06T07:57:27.731Z,99.99
2023-03-06T07:59:57.703Z,99.99
2023-03-06T08:02:27.498Z,99.99
2023-03-06T08:04:57.744Z,99.99
2023-03-06T08:07:28.605Z,99.99
2023-03-06T08:09:58.379Z,99.99
2023-03-06T08:12:28.617Z,99.99
2023-03-06T08:14:58.646Z,99.99
2023-03-06T08:17:28.240Z,99.99
2023-03-06T08:19:58.075Z,99.99
2023-03-06T08:22:28.087Z,99.99
2023-03-06T08:24:57.953Z,99.99
2023-03-06T08:27:27.875Z,99.99
2023-03-06T08:29:57.919Z,99.99
2023-03-06T08:32:28.310Z,99.99
2023-03-06T08:34:58.157Z,99.99
2023-03-06T08:37:28.159Z,99.99
2023-03-06T08:39:58.263Z,99.99
2023-03-06T08:42:28.019Z,99.99
2023-03-06T08:44:57.980Z,99.99
2023-03-06T08:47:27.948Z,99.99
2023-03-06T08:50:00.446Z,99.99
2023-03-06T08:52:31.616Z,99.99
2023-03-06T08:55:04.597Z,99.99
2023-03-06T08:57:34.573Z,99.99
2023-03-06T09:00:08.194Z,99.99
2023-03-06T09:02:38.389Z,99.99
2023-03-06T09:05:10.073Z,99.99
2023-03-06T09:07:40.282Z,99.99
2023-03-06T09:10:14.514Z,99.99
2023-03-06T09:12:50.547Z,99.99
2023-03-06T09:15:23.524Z,99.99
2023-03-06T09:17:55.244Z,99.99
2023-03-06T09:20:25.050Z,99.99
2023-03-06T09:22:55.020Z,99.99
2023-03-06T09:25:24.865Z,99.99
2023-03-06T09:28:10.156Z,99.99
2023-03-06T09:30:42.575Z,99.99
2023-03-06T09:33:12.412Z,99.99
2023-03-06T09:35:59.905Z,99.99
2023-03-06T09:38:30.104Z,99.99
2023-03-06T09:40:59.923Z,99.99
2023-03-06T09:43:46.314Z,99.99
2023-03-06T09:46:27.081Z,99.99
2023-03-06T09:49:13.844Z,99.99
2023-03-06T09:51:58.366Z,99.99
2023-03-06T09:54:45.370Z,99.99
2023-03-06T09:57:29.120Z,99.99
2023-03-06T10:00:13.936Z,99.99
2023-03-06T10:03:21.174Z,99.99
2023-03-06T10:06:19.593Z,99.99
2023-03-06T10:09:23.798Z,99.99
2023-03-06T10:11:55.961Z,99.99
2023-03-06T10:14:34.486Z,99.99
2023-03-06T10:17:05.026Z,99.99
2023-03-06T10:19:37.685Z,99.99
2023-03-06T10:22:25.847Z,99.99
2023-03-06T10:25:11.130Z,99.99
2023-03-06T10:28:39.111Z,99.99
2023-03-06T10:31:27.983Z,99.99
2023-03-06T10:33:58.043Z,99.99
2023-03-06T10:36:31.723Z,99.99
2023-03-06T10:39:02.862Z,99.99
2023-03-06T10:41:39.423Z,99.99
2023-03-06T10:44:10.496Z,99.99
2023-03-06T10:46:45.593Z,99.99
2023-03-06T10:49:31.723Z,99.99
2023-03-06T10:52:22.124Z,99.99
2023-03-06T10:54:51.902Z,99.62
2023-03-06T10:57:27.992Z,99.44
2023-03-06T11:00:24.583Z,99.87
2023-03-06T11:03:08.578Z,98.80
2023-03-06T11:05:39.061Z,98.55
2023-03-06T11:08:23.596Z,99.65
2023-03-06T11:11:36.440Z,99.26
2023-03-06T11:14:17.400Z,99.42
2023-03-06T11:16:55.201Z,99.99
2023-03-06T11:19:30.489Z,99.99
2023-03-06T11:22:18.920Z,99.99
2023-03-06T11:24:54.875Z,99.99
2023-03-06T11:27:35.648Z,99.99
2023-03-06T11:30:25.545Z,99.99
2023-03-06T11:33:03.238Z,99.99
2023-03-06T11:35:40.767Z,99.99
2023-03-06T11:38:18.718Z,99.99
2023-03-06T11:40:55.032Z,99.99
2023-03-06T11:43:28.731Z,99.99
2023-03-06T11:46:04.866Z,99.99
2023-03-06T11:48:45.067Z,98.35
2023-03-06T11:51:23.828Z,96.99
2023-03-06T11:53:56.105Z,96.78
2023-03-06T11:56:35.521Z,95.94
2023-03-06T11:59:16.634Z,94.49
2023-03-06T12:01:56.503Z,92.87
2023-03-06T12:04:28.883Z,93.05
2023-03-06T12:07:20.012Z,94.09
2023-03-06T12:09:49.743Z,91.83
2023-03-06T12:12:22.194Z,92.27
2023-03-06T12:15:03.752Z,91.88
2023-03-06T12:17:50.639Z,92.48
2023-03-06T12:20:44.057Z,93.35
2023-03-06T12:23:50.131Z,92.67
2023-03-06T12:26:19.866Z,92.03
2023-03-06T12:29:07.735Z,90.44
2023-03-06T12:31:59.840Z,89.86
2023-03-06T12:34:35.784Z,88.66
2023-03-06T12:37:10.788Z,87.67
2023-03-06T12:39:52.244Z,89.49
2023-03-06T12:42:31.073Z,87.56
2023-03-06T12:45:23.536Z,88.74
2023-03-06T12:47:59.966Z,88.77
2023-03-06T12:50:35.443Z,88.71
2023-03-06T12:53:08.838Z,87.68
2023-03-06T12:55:46.311Z,86.88
2023-03-06T12:58:38.082Z,87.47
2023-03-06T13:01:35.339Z,87.04
2023-03-06T13:04:32.714Z,87.79
2023-03-06T13:07:02.597Z,85.73
2023-03-06T13:09:56.626Z,86.50
2023-03-06T13:12:57.878Z,83.73
2023-03-06T13:15:41.878Z,83.22
2023-03-06T13:18:34.736Z,81.80
2023-03-06T13:21:05.660Z,78.43
2023-03-06T13:23:38.746Z,79.04
2023-03-06T13:26:33.021Z,79.36
2023-03-06T13:29:03.049Z,81.58
2023-03-06T13:31:37.470Z,81.25
2023-03-06T13:34:28.073Z,80.47
2023-03-06T13:37:29.369Z,84.61
2023-03-06T13:40:02.726Z,82.78
2023-03-06T13:43:02.974Z,85.59
2023-03-06T13:45:44.065Z,83.46
2023-03-06T13:48:44.930Z,84.58
2023-03-06T13:51:26.810Z,81.18
2023-03-06T13:54:02.341Z,81.64
2023-03-06T13:56:48.347Z,86.27
2023-03-06T13:59:21.117Z,86.65
2023-03-06T14:02:13.157Z,84.62
2023-03-06T14:05:02.575Z,84.91
2023-03-06T14:07:36.068Z,83.81
2023-03-06T14:10:22.821Z,82.67
2023-03-06T14:12:52.721Z,80.90
2023-03-06T14:15:24.106Z,80.25
2023-03-06T14:18:08.860Z,80.84
2023-03-06T14:20:40.964Z,83.56
2023-03-06T14:23:23.001Z,80.69
2023-03-06T14:26:16.596Z,78.66
2023-03-06T14:29:01.872Z,78.58
2023-03-06T14:31:39.863Z,80.14
2023-03-06T14:34:10.441Z,82.95
2023-03-06T14:36:50.330Z,79.43
2023-03-06T14:39:44.775Z,77.19
2023-03-06T14:42:27.938Z,78.03
2023-03-06T14:45:08.812Z,78.14
2023-03-06T14:47:38.893Z,77.79
2023-03-06T14:50:27.536Z,77.85
2023-03-06T14:53:16.925Z,78.45
2023-03-06T14:55:59.000Z,76.88
2023-03-06T14:58:39.641Z,78.08
2023-03-06T15:01:14.424Z,75.01
2023-03-06T15:03:49.602Z,74.61
2023-03-06T15:06:53.038Z,79.02
2023-03-06T15:09:26.671Z,78.30
2023-03-06T15:12:02.119Z,75.35
2023-03-06T15:14:37.031Z,76.34
2023-03-06T15:17:25.280Z,73.32
2023-03-06T15:20:00.243Z,73.33
2023-03-06T15:22:41.264Z,74.82
2023-03-06T15:25:31.640Z,77.34
2023-03-06T15:28:04.658Z,78.75
2023-03-06T15:30:37.118Z,75.31
2023-03-06T15:33:24.670Z,75.36
2023-03-06T15:35:59.304Z,74.85
2023-03-06T15:38:44.106Z,77.25
2023-03-06T15:41:36.791Z,76.79
2023-03-06T15:44:16.770Z,77.63
2023-03-06T15:46:48.467Z,76.70
2023-03-06T15:49:19.985Z,76.72
2023-03-06T15:51:50.012Z,75.10
2023-03-06T15:54:19.872Z,73.08
2023-03-06T15:56:51.843Z,73.24
2023-03-06T15:59:35.002Z,74.33
2023-03-06T16:02:15.177Z,75.71
2023-03-06T16:04:46.204Z,76.63
2023-03-06T16:07:17.259Z,75.72
2023-03-06T16:09:47.685Z,73.19
2023-03-06T16:12:20.834Z,74.44
2023-03-06T16:14:51.292Z,73.44
2023-03-06T16:17:21.106Z,74.04
2023-03-06T16:19:52.125Z,72.81
2023-03-06T16:22:21.891Z,70.61
2023-03-06T16:24:52.100Z,70.07
2023-03-06T16:27:24.573Z,71.39
2023-03-06T16:29:54.328Z,70.60
2023-03-06T16:32:28.606Z,72.81
2023-03-06T16:34:58.564Z,73.66
2023-03-06T16:37:28.328Z,73.58
2023-03-06T16:39:58.247Z,70.55
2023-03-06T16:42:28.071Z,72.73
2023-03-06T16:44:57.644Z,73.83
2023-03-06T16:47:27.292Z,72.26
2023-03-06T16:49:59.108Z,72.21
2023-03-06T16:52:29.441Z,71.37
2023-03-06T16:54:59.257Z,71.45
2023-03-06T16:57:33.253Z,69.75
2023-03-06T17:00:03.235Z,66.76
2023-03-06T17:02:33.098Z,69.50
2023-03-06T17:05:02.784Z,70.95
2023-03-06T17:07:37.706Z,77.85
2023-03-06T17:10:10.637Z,80.81
2023-03-06T17:12:40.626Z,78.92
2023-03-06T17:15:12.170Z,76.03
2023-03-06T17:17:42.089Z,75.79
2023-03-06T17:20:14.029Z,75.59
2023-03-06T17:22:44.069Z,74.65
2023-03-06T17:25:13.738Z,76.83
2023-03-06T17:27:43.538Z,78.38
2023-03-06T17:30:14.447Z,82.16
2023-03-06T17:32:44.269Z,78.67
2023-03-06T17:35:13.956Z,81.07
2023-03-06T17:37:43.602Z,79.37
2023-03-06T17:40:13.873Z,76.35
2023-03-06T17:42:43.656Z,75.62
2023-03-06T17:45:13.838Z,75.07
2023-03-06T17:47:43.658Z,79.30
2023-03-06T17:50:13.501Z,79.01
2023-03-06T17:52:43.315Z,78.25
2023-03-06T17:55:12.975Z,77.06
2023-03-06T17:57:42.610Z,75.79
2023-03-06T18:00:13.346Z,76.13
2023-03-06T18:02:46.520Z,74.20
2023-03-06T18:05:16.575Z,76.09
2023-03-06T18:07:46.389Z,75.21
2023-03-06T18:10:16.026Z,76.57
2023-03-06T18:12:46.639Z,75.84
2023-03-06T18:15:16.861Z,75.64
2023-03-06T18:17:47.208Z,76.78
2023-03-06T18:20:17.200Z,73.27
2023-03-06T18:22:46.995Z,74.08
2023-03-06T18:25:16.889Z,74.87
2023-03-06T18:27:46.798Z,75.75
2023-03-06T18:30:16.768Z,75.00
2023-03-06T18:32:46.581Z,74.81
2023-03-06T18:35:16.752Z,75.00
2023-03-06T18:37:46.546Z,75.54
2023-03-06T18:40:16.514Z,77.07
2023-03-06T18:42:46.389Z,80.58
2023-03-06T18:45:16.112Z,80.08
2023-03-06T18:47:45.698Z,82.98
2023-03-06T18:50:18.564Z,84.06
2023-03-06T18:52:48.670Z,84.42
2023-03-06T18:55:18.577Z,79.75
2023-03-06T18:57:48.363Z,78.20
2023-03-06T19:00:18.548Z,78.53
2023-03-06T19:02:48.198Z,80.34
2023-03-06T19:05:18.482Z,80.26
2023-03-06T19:07:48.438Z,79.97
2023-03-06T19:10:18.186Z,81.58
2023-03-06T19:12:47.777Z,82.75
2023-03-06T19:15:17.809Z,81.39
2023-03-06T19:17:50.985Z,80.99
2023-03-06T19:20:25.311Z,80.05
2023-03-06T19:22:55.498Z,80.05
2023-03-06T19:25:25.431Z,80.57
2023-03-06T19:27:56.048Z,81.40
2023-03-06T19:30:26.882Z,81.24
2023-03-06T19:32:57.814Z,80.83
2023-03-06T19:35:29.133Z,81.44
2023-03-06T19:37:59.139Z,80.89
2023-03-06T19:40:28.920Z,81.52
2023-03-06T19:42:58.552Z,81.69
2023-03-06T19:45:28.651Z,82.16
2023-03-06T19:48:02.195Z,83.59
2023-03-06T19:50:32.390Z,83.39
2023-03-06T19:53:03.436Z,82.36
2023-03-06T19:55:33.477Z,82.80
2023-03-06T19:58:03.193Z,81.98
2023-03-06T20:00:33.687Z,84.09
2023-03-06T20:03:03.697Z,83.06
2023-03-06T20:05:33.332Z,82.96
2023-03-06T20:08:03.021Z,83.34
2023-03-06T20:10:33.072Z,83.80
2023-03-06T20:13:02.889Z,82.77
2023-03-06T20:15:36.155Z,84.03
2023-03-06T20:18:07.448Z,84.50
2023-03-06T20:20:40.294Z,84.30
2023-03-06T20:23:11.208Z,84.80
2023-03-06T20:25:41.085Z,85.04
2023-03-06T20:28:10.690Z,84.93
2023-03-06T20:30:40.691Z,85.66
2023-03-06T20:33:10.283Z,86.74
2023-03-06T20:35:43.940Z,86.72
2023-03-06T20:38:14.040Z,87.12
2023-03-06T20:40:44.740Z,86.93
2023-03-06T20:43:14.553Z,86.39
2023-03-06T20:45:44.201Z,86.99
2023-03-06T20:48:13.965Z,86.37
2023-03-06T20:50:43.516Z,86.78
2023-03-06T20:53:13.555Z,86.56
2023-03-06T20:55:43.287Z,86.70
2023-03-06T20:58:13.143Z,86.97
2023-03-06T21:00:42.718Z,87.16
2023-03-06T21:03:12.675Z,88.01
2023-03-06T21:05:42.286Z,87.61
2023-03-06T21:08:12.082Z,87.72
2023-03-06T21:10:42.082Z,87.87
2023-03-06T21:13:12.688Z,87.98
2023-03-06T21:15:46.348Z,88.05
2023-03-06T21:18:18.508Z,88.29
2023-03-06T21:20:48.393Z,88.38
2023-03-06T21:23:18.580Z,88.94
2023-03-06T21:25:53.174Z,89.62
2023-03-06T21:28:23.153Z,90.47
2023-03-06T21:30:52.736Z,91.83
2023-03-06T21:33:22.740Z,91.16
2023-03-06T21:35:52.984Z,92.14
2023-03-06T21:38:22.672Z,93.55
2023-03-06T21:40:52.313Z,93.56
2023-03-06T21:43:22.311Z,94.00
2023-03-06T21:45:53.834Z,94.74
2023-03-06T21:48:26.594Z,95.73
2023-03-06T21:51:09.227Z,96.65
2023-03-06T21:53:42.713Z,96.62
2023-03-06T21:56:14.366Z,96.90
2023-03-06T21:58:44.458Z,97.20
2023-03-06T22:01:25.645Z,97.94
2023-03-06T22:03:56.221Z,98.63
2023-03-06T22:06:27.903Z,99.52
2023-03-06T22:08:58.582Z,99.99
2023-03-06T22:11:32.264Z,99.99
2023-03-06T22:14:02.247Z,99.99
2023-03-06T22:16:32.166Z,99.99
2023-03-06T22:19:01.806Z,99.99
2023-03-06T22:21:31.860Z,99.99
2023-03-06T22:24:01.677Z,99.99
2023-03-06T22:26:33.183Z,99.99
2023-03-06T22:29:03.132Z,99.99
2023-03-06T22:31:32.951Z,99.99
2023-03-06T22:34:03.329Z,99.99
2023-03-06T22:36:33.546Z,99.99
2023-03-06T22:39:06.259Z,99.99
2023-03-06T22:41:36.242Z,99.99
2023-03-06T22:44:06.234Z,99.99
2023-03-06T22:46:36.319Z,99.99
2023-03-06T22:49:06.386Z,99.99
2023-03-06T22:51:38.612Z,99.99
2023-03-06T22:54:09.987Z,99.99
2023-03-06T22:56:39.893Z,99.99
2023-03-06T22:59:10.240Z,99.99
2023-03-06T23:01:39.940Z,99.99
2023-03-06T23:04:12.303Z,99.99
2023-03-06T23:06:44.316Z,99.99
2023-03-06T23:09:22.914Z,99.99
2023-03-06T23:12:12.703Z,99.99
2023-03-06T23:15:00.926Z,99.99
2023-03-06T23:17:49.082Z,99.99
2023-03-06T23:20:36.970Z,99.99
2023-03-06T23:23:25.430Z,99.99
2023-03-06T23:26:00.241Z,99.99
2023-03-06T23:28:30.885Z,99.99
2023-03-06T23:31:00.976Z,99.99
2023-03-06T23:33:31.278Z,99.99
2023-03-06T23:36:05.674Z,99.99
2023-03-06T23:38:36.023Z,99.99
2023-03-06T23:41:13.887Z,99.99
2023-03-06T23:43:45.853Z,99.99
2023-03-06T23:46:20.730Z,99.99
2023-03-06T23:48:51.570Z,99.99
2023-03-06T23:51:24.309Z,99.99
2023-03-06T23:54:01.705Z,99.99
2023-03-06T23:56:32.436Z,99.99
2023-03-06T23:59:23.682Z,99.99
